AirNav   Air Wisconsin pilot careers
 
 1021 users online  

WN55 Randle-Kiona Airpark
Randle, Washington, USA

GOING TO RANDLE?


FAA INFORMATION EFFECTIVE 26 APRIL 2018

Location

FAA Identifier: WN55
Lat/Long: 46-30-41.3990N / 122-00-22.3390W
46-30.689983N / 122-00.372317W
46.5114997 / -122.0062053
(estimated)
Elevation: 934 ft. / 284.7 m (surveyed)
Variation: 20E (1985)
From city: 3 miles SW of RANDLE, WA
Time zone: UTC -7 (UTC -8 during Standard Time)
Zip code: 98377

Airport Operations

Airport use: Private use. Permission required prior to landing
Activation date: 08/1985
Control tower: no
ARTCC: SEATTLE CENTER
FSS: SEATTLE FLIGHT SERVICE STATION
Attendance: UNATNDD
Wind indicator: yes
Segmented circle: no

Nearby radio navigation aids

NDB name  Hdg/Dist  Freq  Var  ID
LACOMAS127/37.432816ELAC .-.. .- -.-.

Airport Services

Runway Information

Runway 7/25

Dimensions: 2400 x 32 ft. / 732 x 10 m
800X200 GRASS OVERRUN WEST END OF RWY
Surface: turf
RUNWAY 7  RUNWAY 25
Traffic pattern: leftleft
Obstructions: none60 ft. trees, 400 ft. from runway

Airport Ownership and Management from official FAA records

Ownership: Privately-owned
Owner: AIRPARK ASSOC. /STEVE JASMER
113 JEFFREY LN
RANDLE, WA 98377
Phone 253-279-2425
Manager: AIRPARK ASSOC. /STEVE JASMER
113 JEFFREY LN
RANDLE, WA 98377
Phone 253-279-2425

Airport Operational Statistics

Aircraft based on the field: 11
Single engine airplanes: 11
    

Additional Remarks

CTN: DEER ON & INVOF ARPT.
USE STEEP APPROACH TO RUNWAY 25.
TAXI ON RY ONLY, OFF RY IS ROUGH.

Instrument Procedures

There are no published instrument procedures at WN55.

Some nearby airports with instrument procedures:

KTDO - Ed Carlson Memorial Field - South Lewis Co Airport (33 nm W)
KPLU - Pierce County Airport - Thun Field (37 nm N)
KGRF - Gray Army Airfield (Joint Base Lewis-McChord) (41 nm NW)
KCLS - Chehalis-Centralia Airport (41 nm W)
KTCM - McChord Field Airport (Joint Base Lewis-McChord) (42 nm NW)
 
Loc | Ops | Rwys | IFR | FBO | Links
Com | Nav | Svcs | Stats | Notes

AirNav Hotels Sweepstakes
 
Area around WN55 (Randle-Kiona Airpark)
 
Road maps at: MapQuest Bing Google
 
Aerial photo
WARNING: Photo may not be current or correct
Aerial photo of WN55 (Randle-Kiona Airpark)
Taken mid July 2011
looking west.

Do you have a better or more recent aerial photo of Randle-Kiona Airpark that you would like to share? If so, please send us your photo.

 
Sectional chart

 
Airport distance calculator
Flying to Randle-Kiona Airpark? Find the distance to fly.

From to WN55

Sunrise and sunset
Times for 23-May-2018
 Local
(UTC-7)
 Zulu
(UTC)
Morning civil twilight04:5011:50
Sunrise05:2712:27
Sunset20:4303:43
Evening civil twilight21:2004:20

Current date and time
Zulu (UTC)  24-May-2018 00:42:37
Local (UTC-7)  23-May-2018 17:42:37
 
METAR
KPLU 
37nm N 
240015Z AUTO VRB03KT 10SM FEW100 27/12 A2979 RMK AO2
KGRF 
40nm NW 
232358Z AUTO 28008KT 10SM CLR 26/16 A2978 RMK AO2 SLP087 T02560159 10260 20199 55004 RVRNO $
KTCM 
41nm NW 
232358Z AUTO 32006KT 10SM CLR 26/16 A2978 RMK AO2 SLP087 T02570160 10265 20208 56004 $
KCLS 
41nm W 
240015Z AUTO 23006G11KT 10SM CLR 25/12 A2981 RMK AO2
KKLS 
44nm SW 
232356Z AUTO 29011KT 10SM CLR 23/13 A2982 RMK AO2 SLP101 T02280133 10239 20172 55001
KOLM 
46nm NW 
232354Z 20013KT 10SM FEW110 24/11 A2979 RMK AO2 SLP087 T02440106 10256 20206 55002
TAF
KGRF 
40nm NW 
232103Z 2321/2503 VRB06KT 9999 SKC QNH2977INS BECMG 2408/2409 VRB06KT 9999 BKN010 OVC015 QNH2992INS TEMPO 2409/2415 BKN007 BECMG 2417/2418 VRB06KT 9999 BKN020 QNH2994INS BECMG 2419/2420 VRB06KT 9999 SCT025 QNH2994INS TX25/2323Z TN11/2412Z
KTCM 
41nm NW 
232107Z 2321/2503 VRB06KT 9999 SKC QNH2977INS BECMG 2408/2409 VRB06KT 9999 BKN010 OVC015 QNH2992INS TEMPO 2409/2415 BKN007 BECMG 2417/2418 VRB06KT 9999 BKN020 QNH2994INS BECMG 2419/2420 VRB06KT 9999 SCT025 QNH2994INS TX25/2323Z TN11/2412Z
KOLM 
46nm NW 
231720Z 2318/2418 22006KT P6SM FEW040 SCT120 FM240000 22012KT P6SM SCT040 BKN120 FM240600 22008KT P6SM BKN020 BKN060 FM240900 22006KT P6SM OVC018 FM241700 22006KT P6SM BKN025
NOTAMs
Click for the latest NOTAMs
NOTAMs are issued by the DoD/FAA and will open in a separate window not controlled by AirNav.

 

 
 

Would you like to see your business listed on this page?

 If your business provides an interesting product or service to pilots, flight crews, aircraft, or users of the Randle-Kiona Airpark, you should consider listing it here.  To start the listing process, click on the button below
 
Add a business
 

Other Pages about Randle-Kiona Airpark

Update a link
 
Copyright © AirNav, LLC. All rights reserved. Privacy Policy  Contact